createdAt,value
2019-03-22T00:00:28.697Z,9.20
2019-03-22T00:02:57.264Z,9.20
2019-03-22T00:05:25.669Z,9.30
2019-03-22T00:07:54.151Z,9.30
2019-03-22T00:10:22.621Z,9.30
2019-03-22T00:12:51.038Z,9.20
2019-03-22T00:15:19.455Z,9.30
2019-03-22T00:17:47.871Z,9.20
2019-03-22T00:20:16.294Z,9.20
2019-03-22T00:22:44.704Z,9.20
2019-03-22T00:25:13.102Z,9.30
2019-03-22T00:27:41.580Z,9.30
2019-03-22T00:30:11.406Z,9.20
2019-03-22T00:32:39.801Z,9.20
2019-03-22T00:35:08.587Z,9.20
2019-03-22T00:37:36.985Z,9.20
2019-03-22T00:40:06.117Z,9.20
2019-03-22T00:42:34.524Z,9.20
2019-03-22T00:45:03.544Z,9.20
2019-03-22T00:47:31.938Z,9.20
2019-03-22T00:50:00.449Z,9.20
2019-03-22T00:52:28.821Z,9.20
2019-03-22T00:54:57.244Z,9.30
2019-03-22T00:57:28.829Z,9.20
2019-03-22T00:59:55.803Z,9.20
2019-03-22T01:02:24.226Z,9.20
2019-03-22T01:04:52.784Z,9.20
2019-03-22T01:07:21.218Z,9.20
2019-03-22T01:09:49.644Z,9.20
2019-03-22T01:12:18.105Z,9.20
2019-03-22T01:14:46.711Z,9.20
2019-03-22T01:17:15.144Z,9.20
2019-03-22T01:19:43.529Z,9.20
2019-03-22T01:22:12.001Z,9.20
2019-03-22T01:24:40.400Z,9.20
2019-03-22T01:27:08.789Z,9.20
2019-03-22T01:29:37.315Z,9.20
2019-03-22T01:32:05.697Z,9.20
2019-03-22T01:34:34.165Z,9.20
2019-03-22T01:37:02.573Z,9.20
2019-03-22T01:39:31.072Z,9.10
2019-03-22T01:41:59.522Z,9.10
2019-03-22T01:44:27.890Z,9.20
2019-03-22T01:46:56.305Z,9.20
2019-03-22T01:49:24.725Z,9.20
2019-03-22T01:51:53.146Z,9.20
2019-03-22T01:54:21.574Z,9.20
2019-03-22T01:56:50.022Z,9.20
2019-03-22T01:59:18.534Z,9.20
2019-03-22T02:01:46.961Z,9.20
2019-03-22T02:04:15.390Z,9.30
2019-03-22T02:06:43.822Z,9.30
2019-03-22T02:09:12.238Z,9.30
2019-03-22T02:11:40.626Z,9.30
2019-03-22T02:14:09.051Z,9.30
2019-03-22T02:16:37.466Z,9.30
2019-03-22T02:19:05.916Z,9.30
2019-03-22T02:21:34.530Z,9.30
2019-03-22T02:24:02.927Z,9.30
2019-03-22T02:26:31.389Z,9.30
2019-03-22T02:28:59.807Z,9.30
2019-03-22T02:31:28.259Z,9.30
2019-03-22T02:33:56.779Z,9.30
2019-03-22T02:36:25.222Z,9.30
2019-03-22T02:38:53.657Z,9.40
2019-03-22T02:41:22.055Z,9.30
2019-03-22T02:43:50.445Z,9.30
2019-03-22T02:46:18.864Z,9.30
2019-03-22T02:48:47.343Z,9.30
2019-03-22T02:51:15.808Z,9.30
2019-03-22T02:53:44.345Z,9.30
2019-03-22T02:56:12.872Z,9.30
2019-03-22T02:58:41.474Z,9.30
2019-03-22T03:01:09.931Z,9.30
2019-03-22T03:03:38.331Z,9.30
2019-03-22T03:06:06.735Z,9.30
2019-03-22T03:08:35.222Z,9.30
2019-03-22T03:11:03.652Z,9.30
2019-03-22T03:13:32.207Z,9.20
2019-03-22T03:16:00.635Z,9.30
2019-03-22T03:18:29.058Z,9.20
2019-03-22T03:20:57.603Z,9.20
2019-03-22T03:23:25.999Z,9.20
2019-03-22T03:25:54.383Z,9.30
2019-03-22T03:28:36.167Z,9.20
2019-03-22T03:30:52.888Z,9.20
2019-03-22T03:33:21.302Z,9.20
2019-03-22T03:35:49.720Z,9.20
2019-03-22T03:38:18.104Z,9.20
2019-03-22T03:40:46.582Z,9.20
2019-03-22T03:43:14.965Z,9.20
2019-03-22T03:45:43.415Z,9.20
2019-03-22T03:48:11.888Z,9.20
2019-03-22T03:50:40.290Z,9.10
2019-03-22T03:53:08.784Z,9.20
2019-03-22T03:55:37.199Z,9.10
2019-03-22T03:58:05.649Z,9.10
2019-03-22T04:00:34.079Z,9.10
2019-03-22T04:03:02.501Z,9.10
2019-03-22T04:05:30.911Z,9.10
2019-03-22T04:07:59.368Z,9.10
2019-03-22T04:10:27.873Z,9.10
2019-03-22T04:12:56.383Z,9.00
2019-03-22T04:15:24.966Z,9.10
2019-03-22T04:17:53.365Z,9.10
2019-03-22T04:20:21.790Z,9.00
2019-03-22T04:22:50.204Z,9.00
2019-03-22T04:25:18.675Z,9.10
2019-03-22T04:27:47.043Z,9.10
2019-03-22T04:30:15.554Z,9.00
2019-03-22T04:32:43.942Z,9.10
2019-03-22T04:35:12.487Z,9.00
2019-03-22T04:37:40.937Z,9.10
2019-03-22T04:40:24.072Z,9.00
2019-03-22T04:42:52.514Z,9.10
2019-03-22T04:45:21.047Z,9.10
2019-03-22T04:47:49.448Z,9.00
2019-03-22T04:50:17.870Z,9.10
2019-03-22T04:52:46.293Z,9.10
2019-03-22T04:55:14.740Z,9.10
2019-03-22T04:57:43.208Z,9.20
2019-03-22T05:00:11.722Z,9.10
2019-03-22T05:02:40.463Z,9.20
2019-03-22T05:05:08.907Z,9.20
2019-03-22T05:07:37.389Z,9.10
2019-03-22T05:10:06.855Z,9.10
2019-03-22T05:12:35.322Z,9.10
2019-03-22T05:15:04.695Z,9.00
2019-03-22T05:17:33.119Z,9.10
2019-03-22T05:20:01.532Z,9.10
2019-03-22T05:22:29.956Z,9.00
2019-03-22T05:24:58.441Z,9.00
2019-03-22T05:27:26.829Z,9.10
2019-03-22T05:29:55.283Z,9.00
2019-03-22T05:32:23.680Z,9.00
2019-03-22T05:34:52.150Z,9.00
2019-03-22T05:37:20.569Z,9.00
2019-03-22T05:39:48.967Z,9.00
2019-03-22T05:42:17.417Z,9.00
2019-03-22T05:44:45.910Z,8.90
2019-03-22T05:47:14.293Z,8.90
2019-03-22T05:49:42.715Z,8.90
2019-03-22T05:52:11.206Z,9.00
2019-03-22T05:54:39.587Z,9.00
2019-03-22T05:57:13.229Z,9.00
2019-03-22T05:59:42.753Z,8.90
2019-03-22T06:02:08.119Z,9.00
2019-03-22T06:04:36.513Z,9.00
2019-03-22T06:07:04.934Z,9.00
2019-03-22T06:09:33.363Z,9.00
2019-03-22T06:12:01.800Z,9.10
2019-03-22T06:14:30.572Z,9.00
2019-03-22T06:16:59.005Z,9.10
2019-03-22T06:19:27.410Z,9.10
2019-03-22T06:21:55.851Z,9.20
2019-03-22T06:24:24.280Z,9.20
2019-03-22T06:26:52.669Z,9.20
2019-03-22T06:29:21.183Z,9.10
2019-03-22T06:31:49.609Z,9.10
2019-03-22T06:34:18.085Z,9.10
2019-03-22T06:36:46.477Z,9.00
2019-03-22T06:39:14.886Z,9.10
2019-03-22T06:41:43.355Z,9.10
2019-03-22T06:44:11.774Z,9.10
2019-03-22T06:46:40.157Z,9.10
2019-03-22T06:49:08.601Z,9.10
2019-03-22T06:51:37.100Z,9.00
2019-03-22T06:54:05.570Z,9.00
2019-03-22T06:56:34.011Z,9.10
2019-03-22T06:59:02.400Z,9.20
2019-03-22T07:01:30.935Z,9.10
2019-03-22T07:03:59.323Z,9.20
2019-03-22T07:06:29.456Z,9.20
2019-03-22T07:08:57.931Z,9.20
2019-03-22T07:11:26.356Z,9.30
2019-03-22T07:13:54.742Z,9.30
2019-03-22T07:16:23.197Z,9.40
2019-03-22T07:18:51.669Z,9.50
2019-03-22T07:21:20.103Z,9.50
2019-03-22T07:23:48.617Z,9.40
2019-03-22T07:26:17.022Z,9.40
2019-03-22T07:28:45.455Z,9.40
2019-03-22T07:31:13.931Z,9.50
2019-03-22T07:33:42.389Z,9.60
2019-03-22T07:36:10.773Z,9.60
2019-03-22T07:38:39.225Z,9.70
2019-03-22T07:41:07.623Z,9.60
2019-03-22T07:43:36.033Z,9.70
2019-03-22T07:46:04.483Z,9.70
2019-03-22T07:48:32.963Z,9.70
2019-03-22T07:51:01.463Z,9.80
2019-03-22T07:53:30.038Z,9.80
2019-03-22T07:55:58.500Z,9.80
2019-03-22T07:58:26.988Z,9.90
2019-03-22T08:00:55.444Z,10.00
2019-03-22T08:03:24.086Z,10.10
2019-03-22T08:05:52.543Z,10.20
2019-03-22T08:08:20.981Z,10.30
2019-03-22T08:10:50.422Z,10.20
2019-03-22T08:13:18.879Z,10.20
2019-03-22T08:15:47.390Z,10.30
2019-03-22T08:18:15.852Z,10.40
2019-03-22T08:20:44.305Z,10.50
2019-03-22T08:23:20.740Z,10.60
2019-03-22T08:25:49.406Z,10.50
2019-03-22T08:28:17.863Z,10.70
2019-03-22T08:30:47.378Z,10.70
2019-03-22T08:33:15.885Z,11.00
2019-03-22T08:35:44.343Z,11.00
2019-03-22T08:38:12.823Z,11.00
2019-03-22T08:40:41.272Z,11.10
2019-03-22T08:43:09.799Z,11.40
2019-03-22T08:45:38.229Z,11.30
2019-03-22T08:48:06.657Z,11.40
2019-03-22T08:50:35.248Z,11.60
2019-03-22T08:53:03.684Z,11.80
2019-03-22T08:55:32.183Z,12.10
2019-03-22T08:58:00.696Z,12.00
2019-03-22T09:00:38.721Z,11.90
2019-03-22T09:02:59.236Z,12.30
2019-03-22T09:05:27.734Z,12.70
2019-03-22T09:07:56.175Z,12.80
2019-03-22T09:10:24.652Z,12.90
2019-03-22T09:12:53.141Z,13.10
2019-03-22T09:15:21.637Z,13.50
2019-03-22T09:17:50.066Z,13.40
2019-03-22T09:20:19.709Z,13.70
2019-03-22T09:22:48.146Z,14.30
2019-03-22T09:25:16.704Z,14.80
2019-03-22T09:27:45.145Z,14.80
2019-03-22T09:30:14.326Z,15.00
2019-03-22T09:32:51.525Z,15.30
2019-03-22T09:35:20.001Z,16.00
2019-03-22T09:37:51.291Z,15.90
2019-03-22T09:40:19.677Z,15.90
2019-03-22T09:42:48.181Z,16.00
2019-03-22T09:45:16.731Z,16.30
2019-03-22T09:47:45.285Z,16.10
2019-03-22T09:50:13.779Z,16.60
2019-03-22T09:52:42.313Z,17.10
2019-03-22T09:55:13.868Z,17.20
2019-03-22T09:57:40.827Z,17.20
2019-03-22T10:00:12.630Z,17.20
2019-03-22T10:02:40.992Z,16.80
2019-03-22T10:05:09.483Z,17.50
2019-03-22T10:07:37.913Z,18.00
2019-03-22T10:10:06.782Z,18.00
2019-03-22T10:12:35.203Z,18.00
2019-03-22T10:15:05.386Z,18.40
2019-03-22T10:17:35.477Z,18.60
2019-03-22T10:20:05.893Z,18.40
2019-03-22T10:22:34.307Z,18.10
2019-03-22T10:25:02.830Z,18.10
2019-03-22T10:27:31.212Z,18.50
2019-03-22T10:29:59.738Z,18.90
2019-03-22T10:32:28.145Z,19.20
2019-03-22T10:34:56.558Z,19.90
2019-03-22T10:37:24.996Z,19.60
2019-03-22T10:39:53.376Z,20.10
2019-03-22T10:42:21.881Z,20.40
2019-03-22T10:44:50.304Z,20.80
2019-03-22T10:47:18.747Z,21.00
2019-03-22T10:49:47.202Z,20.30
2019-03-22T10:52:15.608Z,20.50
2019-03-22T10:54:44.041Z,20.60
2019-03-22T10:57:12.468Z,19.80
2019-03-22T10:59:40.895Z,20.90
2019-03-22T11:02:09.360Z,21.00
2019-03-22T11:04:37.760Z,21.60
2019-03-22T11:07:06.156Z,21.60
2019-03-22T11:09:34.659Z,22.10
2019-03-22T11:12:11.850Z,21.30
2019-03-22T11:14:33.139Z,22.00
2019-03-22T11:17:01.540Z,22.30
2019-03-22T11:19:30.099Z,22.30
2019-03-22T11:21:58.493Z,22.70
2019-03-22T11:24:26.896Z,21.90
2019-03-22T11:26:55.328Z,21.60
2019-03-22T11:29:26.448Z,22.20
2019-03-22T11:31:54.896Z,22.50
2019-03-22T11:34:23.300Z,22.60
2019-03-22T11:36:51.713Z,23.30
2019-03-22T11:39:20.129Z,22.90
2019-03-22T11:41:48.530Z,23.30
2019-03-22T11:44:16.978Z,23.40
2019-03-22T11:46:45.356Z,22.60
2019-03-22T11:49:13.949Z,22.00
2019-03-22T11:51:43.376Z,22.40
2019-03-22T11:54:11.762Z,22.40
2019-03-22T11:56:40.186Z,22.30
2019-03-22T11:59:10.602Z,22.60
2019-03-22T12:01:39.069Z,22.90
2019-03-22T12:04:07.484Z,22.90
2019-03-22T12:06:35.978Z,23.50
2019-03-22T12:09:05.982Z,23.20
2019-03-22T12:11:34.397Z,23.30
2019-03-22T12:14:02.822Z,23.00
2019-03-22T12:16:31.237Z,23.30
2019-03-22T12:18:59.660Z,24.30
2019-03-22T12:21:28.079Z,24.20
2019-03-22T12:23:56.468Z,24.40
2019-03-22T12:26:24.904Z,24.00
2019-03-22T12:28:53.337Z,23.90
2019-03-22T12:31:21.739Z,23.80
2019-03-22T12:33:50.167Z,23.40
2019-03-22T12:36:18.622Z,23.90
2019-03-22T12:38:47.003Z,23.80
2019-03-22T12:41:15.419Z,23.80
2019-03-22T12:43:43.827Z,24.30
2019-03-22T12:46:12.247Z,23.60
2019-03-22T12:48:40.655Z,24.40
2019-03-22T12:51:09.248Z,24.10
2019-03-22T12:53:37.657Z,24.10
2019-03-22T12:56:06.056Z,23.80
2019-03-22T12:58:34.497Z,24.10
2019-03-22T13:01:03.921Z,24.80
2019-03-22T13:03:32.314Z,24.20
2019-03-22T13:06:00.790Z,24.30
2019-03-22T13:08:29.249Z,24.00
2019-03-22T13:10:57.625Z,24.20
2019-03-22T13:13:26.098Z,23.30
2019-03-22T13:15:54.474Z,23.20
2019-03-22T13:18:22.888Z,23.90
2019-03-22T13:20:52.275Z,24.20
2019-03-22T13:23:20.745Z,24.10
2019-03-22T13:25:49.186Z,24.50
2019-03-22T13:28:17.623Z,24.80
2019-03-22T13:30:46.069Z,24.90
2019-03-22T13:33:14.590Z,25.30
2019-03-22T13:35:43.029Z,25.00
2019-03-22T13:38:11.414Z,24.70
2019-03-22T13:40:39.825Z,24.30
2019-03-22T13:43:08.243Z,24.10
2019-03-22T13:45:36.657Z,23.70
2019-03-22T13:48:05.070Z,24.40
2019-03-22T13:50:33.477Z,24.00
2019-03-22T13:53:01.952Z,24.50
2019-03-22T13:55:30.380Z,24.40
2019-03-22T13:57:58.762Z,24.10
2019-03-22T14:00:27.238Z,24.00
2019-03-22T14:03:03.008Z,23.70
2019-03-22T14:05:25.703Z,23.70
2019-03-22T14:07:54.109Z,23.10
2019-03-22T14:10:30.177Z,23.70
2019-03-22T14:12:59.813Z,23.70
2019-03-22T14:15:28.387Z,23.40
2019-03-22T14:17:57.864Z,23.40
2019-03-22T14:20:26.272Z,23.40
2019-03-22T14:22:54.697Z,23.20
2019-03-22T14:25:23.236Z,23.50
2019-03-22T14:27:53.277Z,23.20
2019-03-22T14:30:21.704Z,23.20
2019-03-22T14:32:50.098Z,23.40
2019-03-22T14:35:18.511Z,23.10
2019-03-22T14:37:46.921Z,23.30
2019-03-22T14:40:15.767Z,23.60
2019-03-22T14:42:44.370Z,23.70
2019-03-22T14:45:12.803Z,23.60
2019-03-22T14:47:41.244Z,23.70
2019-03-22T14:50:09.646Z,23.40
2019-03-22T14:52:38.089Z,23.60
2019-03-22T14:55:06.707Z,23.20
2019-03-22T14:57:35.256Z,23.40
2019-03-22T15:00:05.416Z,23.30
2019-03-22T15:02:33.869Z,23.60
2019-03-22T15:05:02.354Z,22.90
2019-03-22T15:07:30.775Z,23.70
2019-03-22T15:09:59.177Z,23.50
2019-03-22T15:12:27.924Z,23.40
2019-03-22T15:14:58.063Z,23.30
2019-03-22T15:17:37.446Z,23.30
2019-03-22T15:20:10.169Z,22.90
2019-03-22T15:22:40.334Z,23.20
2019-03-22T15:25:28.773Z,23.30
2019-03-22T15:28:15.109Z,23.30
2019-03-22T15:31:01.644Z,23.00
2019-03-22T15:33:43.666Z,22.60
2019-03-22T15:36:32.575Z,22.50
2019-03-22T15:39:02.735Z,22.20
2019-03-22T15:41:31.384Z,22.20
2019-03-22T15:43:59.850Z,22.30
2019-03-22T15:46:28.245Z,21.80
2019-03-22T15:48:56.690Z,21.80
2019-03-22T15:51:25.167Z,21.80
2019-03-22T15:53:53.763Z,21.50
2019-03-22T15:56:22.262Z,21.50
2019-03-22T15:58:50.862Z,21.60
2019-03-22T16:01:19.281Z,21.10
2019-03-22T16:03:47.839Z,21.00
2019-03-22T16:06:16.315Z,20.90
2019-03-22T16:08:45.062Z,20.60
2019-03-22T16:11:13.833Z,20.60
2019-03-22T16:13:42.508Z,20.40
2019-03-22T16:16:10.996Z,20.40
2019-03-22T16:18:42.448Z,20.30
2019-03-22T16:21:10.866Z,20.10
2019-03-22T16:23:39.395Z,20.20
2019-03-22T16:26:07.794Z,20.00
2019-03-22T16:28:36.254Z,19.90
2019-03-22T16:31:04.682Z,19.90
2019-03-22T16:33:34.149Z,19.80
2019-03-22T16:36:02.681Z,19.80
2019-03-22T16:38:31.174Z,19.60
2019-03-22T16:40:59.672Z,19.60
2019-03-22T16:43:28.081Z,19.60
2019-03-22T16:45:56.564Z,19.50
2019-03-22T16:48:24.966Z,19.50
2019-03-22T16:50:53.465Z,19.30
2019-03-22T16:53:21.933Z,19.30
2019-03-22T16:55:50.373Z,19.30
2019-03-22T16:58:18.810Z,19.20
2019-03-22T17:00:49.783Z,19.10
2019-03-22T17:03:35.642Z,19.00
2019-03-22T17:06:04.082Z,18.90
2019-03-22T17:08:32.490Z,18.90
2019-03-22T17:11:00.982Z,18.90
2019-03-22T17:13:29.443Z,18.80
2019-03-22T17:15:57.892Z,18.60
2019-03-22T17:18:26.301Z,18.50
2019-03-22T17:20:54.717Z,18.40
2019-03-22T17:23:23.149Z,18.30
2019-03-22T17:25:52.558Z,18.20
2019-03-22T17:28:20.981Z,18.10
2019-03-22T17:30:50.402Z,18.00
2019-03-22T17:33:18.795Z,17.80
2019-03-22T17:35:49.241Z,17.60
2019-03-22T17:38:17.650Z,17.50
2019-03-22T17:40:47.019Z,17.30
2019-03-22T17:43:15.469Z,17.20
2019-03-22T17:45:43.923Z,17.00
2019-03-22T17:48:12.356Z,16.90
2019-03-22T17:50:40.754Z,16.80
2019-03-22T17:53:09.160Z,16.60
2019-03-22T17:55:38.463Z,16.50
2019-03-22T17:58:06.884Z,16.40
2019-03-22T18:00:35.642Z,16.30
2019-03-22T18:03:04.049Z,16.10
2019-03-22T18:05:32.507Z,16.10
2019-03-22T18:08:01.028Z,16.00
2019-03-22T18:10:29.480Z,15.90
2019-03-22T18:12:57.869Z,15.80
2019-03-22T18:15:26.310Z,15.80
2019-03-22T18:17:54.995Z,15.60
2019-03-22T18:20:23.381Z,15.60
2019-03-22T18:22:51.765Z,15.40
2019-03-22T18:25:20.215Z,15.20
2019-03-22T18:27:48.601Z,15.00
2019-03-22T18:30:17.068Z,14.80
2019-03-22T18:32:45.446Z,14.90
2019-03-22T18:35:14.912Z,14.70
2019-03-22T18:37:43.307Z,14.60
2019-03-22T18:40:15.269Z,14.50
2019-03-22T18:42:43.871Z,14.40
2019-03-22T18:45:13.141Z,14.30
2019-03-22T18:47:42.177Z,14.20
2019-03-22T18:50:11.481Z,14.10
2019-03-22T18:52:39.988Z,14.00
2019-03-22T18:55:08.615Z,14.00
2019-03-22T18:57:37.079Z,13.90
2019-03-22T19:00:08.167Z,13.80
2019-03-22T19:02:36.604Z,13.60
2019-03-22T19:05:30.293Z,13.50
2019-03-22T19:07:58.739Z,13.50
2019-03-22T19:10:27.149Z,13.50
2019-03-22T19:12:55.776Z,13.50
2019-03-22T19:15:24.341Z,13.40
2019-03-22T19:17:52.884Z,13.40
2019-03-22T19:20:21.322Z,13.30
2019-03-22T19:22:49.737Z,13.20
2019-03-22T19:25:18.268Z,13.10
2019-03-22T19:27:46.850Z,13.00
2019-03-22T19:30:16.275Z,13.00
2019-03-22T19:32:44.745Z,12.90
2019-03-22T19:35:14.953Z,12.80
2019-03-22T19:37:43.413Z,12.80
2019-03-22T19:40:13.848Z,12.70
2019-03-22T19:42:42.479Z,12.70
2019-03-22T19:45:12.010Z,12.60
2019-03-22T19:47:40.774Z,12.50
2019-03-22T19:50:14.437Z,12.50
2019-03-22T19:52:43.096Z,12.40
2019-03-22T19:55:12.193Z,12.30
2019-03-22T19:57:40.783Z,12.30
2019-03-22T20:00:15.416Z,12.30
2019-03-22T20:02:43.913Z,12.20
2019-03-22T20:05:15.887Z,12.20
2019-03-22T20:07:44.291Z,12.20
2019-03-22T20:10:13.389Z,12.00
2019-03-22T20:12:41.846Z,11.90
2019-03-22T20:15:10.477Z,11.90
2019-03-22T20:17:39.013Z,11.90
2019-03-22T20:20:08.649Z,11.80
2019-03-22T20:22:37.135Z,11.70
2019-03-22T20:25:07.370Z,11.70
2019-03-22T20:27:35.891Z,11.70
2019-03-22T20:30:06.353Z,11.60
2019-03-22T20:32:34.804Z,11.60
2019-03-22T20:35:15.326Z,11.60
2019-03-22T20:37:34.688Z,11.50
2019-03-22T20:40:07.923Z,11.50
2019-03-22T20:42:36.569Z,11.40
2019-03-22T20:45:06.281Z,11.50
2019-03-22T20:47:34.743Z,11.40
2019-03-22T20:50:03.598Z,11.30
2019-03-22T20:52:32.093Z,11.40
2019-03-22T20:55:20.032Z,11.30
2019-03-22T20:57:48.550Z,11.40
2019-03-22T21:00:18.117Z,11.30
2019-03-22T21:02:46.551Z,11.50
2019-03-22T21:05:26.111Z,11.50
2019-03-22T21:07:45.622Z,11.50
2019-03-22T21:10:14.057Z,11.40
2019-03-22T21:12:42.513Z,11.50
2019-03-22T21:15:12.079Z,11.40
2019-03-22T21:17:40.567Z,11.30
2019-03-22T21:20:27.050Z,11.30
2019-03-22T21:22:55.422Z,11.40
2019-03-22T21:25:23.838Z,11.80
2019-03-22T21:27:52.383Z,11.80
2019-03-22T21:30:22.554Z,11.80
2019-03-22T21:32:51.173Z,11.70
2019-03-22T21:35:22.740Z,11.60
2019-03-22T21:37:50.117Z,11.50
2019-03-22T21:40:18.705Z,11.40
2019-03-22T21:42:47.104Z,11.30
2019-03-22T21:45:15.705Z,11.20
2019-03-22T21:47:44.116Z,11.20
2019-03-22T21:50:12.549Z,11.10
2019-03-22T21:52:41.010Z,11.00
2019-03-22T21:55:09.586Z,10.90
2019-03-22T21:57:38.051Z,10.80
2019-03-22T22:00:08.449Z,10.70
2019-03-22T22:02:37.139Z,10.50
2019-03-22T22:05:06.813Z,10.20
2019-03-22T22:07:35.300Z,9.80
2019-03-22T22:10:06.430Z,9.30
2019-03-22T22:12:34.876Z,8.60
2019-03-22T22:15:03.930Z,8.30
2019-03-22T22:17:32.381Z,8.00
2019-03-22T22:20:00.909Z,8.00
2019-03-22T22:22:29.306Z,7.70
2019-03-22T22:24:57.816Z,7.60
2019-03-22T22:27:26.382Z,7.70
2019-03-22T22:29:54.745Z,7.70
2019-03-22T22:32:23.443Z,7.70
2019-03-22T22:34:51.859Z,7.50
2019-03-22T22:37:20.294Z,7.60
2019-03-22T22:39:48.681Z,7.40
2019-03-22T22:42:17.302Z,7.50
2019-03-22T22:44:45.777Z,7.40
2019-03-22T22:47:14.299Z,7.40
2019-03-22T22:49:42.714Z,7.50
2019-03-22T22:52:11.306Z,7.80
2019-03-22T22:54:39.678Z,7.70
2019-03-22T22:57:08.193Z,7.70
2019-03-22T22:59:39.605Z,7.70
2019-03-22T23:02:10.910Z,7.80
2019-03-22T23:04:39.414Z,8.00
2019-03-22T23:07:07.883Z,7.90
2019-03-22T23:09:36.342Z,8.10
2019-03-22T23:12:05.133Z,8.00
2019-03-22T23:14:33.552Z,8.00
2019-03-22T23:17:01.932Z,8.20
2019-03-22T23:19:30.405Z,8.20
2019-03-22T23:21:58.795Z,8.30
2019-03-22T23:24:27.279Z,8.40
2019-03-22T23:26:55.705Z,8.40
2019-03-22T23:29:24.088Z,8.40
2019-03-22T23:31:52.586Z,8.40
2019-03-22T23:34:21.007Z,8.40
2019-03-22T23:36:49.484Z,8.50
2019-03-22T23:39:17.959Z,8.40
2019-03-22T23:41:46.333Z,8.30
2019-03-22T23:44:14.898Z,8.40
2019-03-22T23:46:43.333Z,8.40
2019-03-22T23:49:11.727Z,8.20
2019-03-22T23:51:40.430Z,8.30
2019-03-22T23:54:08.894Z,8.20
2019-03-22T23:56:37.294Z,8.20
2019-03-22T23:59:05.686Z,8.10
